createdAt,value
2019-02-23T00:00:25.028Z,8.65
2019-02-23T00:05:30.237Z,8.68
2019-02-23T00:10:35.545Z,8.71
2019-02-23T00:15:40.935Z,8.74
2019-02-23T00:20:46.187Z,8.82
2019-02-23T00:25:51.417Z,8.94
2019-02-23T00:30:56.642Z,9.04
2019-02-23T00:36:01.827Z,9.06
2019-02-23T00:41:07.058Z,9.14
2019-02-23T00:46:12.291Z,9.13
2019-02-23T00:51:17.548Z,9.04
2019-02-23T00:56:23.562Z,8.99
2019-02-23T01:01:28.736Z,8.96
2019-02-23T01:06:33.992Z,8.90
2019-02-23T01:11:39.386Z,8.95
2019-02-23T01:16:44.643Z,8.97
2019-02-23T01:21:50.004Z,9.03
2019-02-23T01:26:55.177Z,9.05
2019-02-23T01:32:00.407Z,9.11
2019-02-23T01:42:23.073Z,9.24
2019-02-23T01:47:28.348Z,9.23
2019-02-23T01:52:33.602Z,9.20
2019-02-23T01:57:38.898Z,9.27
2019-02-23T02:02:45.581Z,9.34
2019-02-23T02:07:51.017Z,9.36
2019-02-23T02:12:56.228Z,9.40
2019-02-23T02:18:01.473Z,9.55
2019-02-23T02:23:06.921Z,9.63
2019-02-23T02:28:12.164Z,9.73
2019-02-23T02:33:17.413Z,9.79
2019-02-23T02:38:22.633Z,9.81
2019-02-23T02:43:27.878Z,9.82
2019-02-23T02:48:33.123Z,9.84
2019-02-23T02:53:38.410Z,9.87
2019-02-23T02:58:43.821Z,9.94
2019-02-23T03:03:49.194Z,9.94
2019-02-23T03:08:54.503Z,9.97
2019-02-23T03:13:59.725Z,9.94
2019-02-23T03:19:05.148Z,9.94
2019-02-23T03:24:10.359Z,9.90
2019-02-23T03:29:15.589Z,9.93
2019-02-23T03:34:20.898Z,9.92
2019-02-23T03:39:26.152Z,9.96
2019-02-23T03:44:31.399Z,9.97
2019-02-23T03:49:36.669Z,9.93
2019-02-23T03:54:42.049Z,9.89
2019-02-23T03:59:47.449Z,9.86
2019-02-23T04:04:52.766Z,9.88
2019-02-23T04:09:58.067Z,9.90
2019-02-23T04:15:03.329Z,9.87
2019-02-23T04:20:08.728Z,9.83
2019-02-23T04:25:14.090Z,9.79
2019-02-23T04:30:19.337Z,9.81
2019-02-23T04:35:24.674Z,9.80
2019-02-23T04:40:29.937Z,9.78
2019-02-23T04:45:35.148Z,9.79
2019-02-23T04:50:40.573Z,9.79
2019-02-23T04:55:45.863Z,9.73
2019-02-23T05:00:51.157Z,9.70
2019-02-23T05:05:56.269Z,9.63
2019-02-23T05:11:01.565Z,9.55
2019-02-23T05:16:06.801Z,9.49
2019-02-23T05:21:12.129Z,9.43
2019-02-23T05:26:17.464Z,9.37
2019-02-23T05:31:22.805Z,9.33
2019-02-23T05:36:28.168Z,9.29
2019-02-23T05:41:33.308Z,9.36
2019-02-23T05:46:38.635Z,9.35
2019-02-23T05:51:43.992Z,9.29
2019-02-23T05:56:49.306Z,9.28
2019-02-23T06:01:54.654Z,9.29
2019-02-23T06:07:00.001Z,9.29
2019-02-23T06:12:05.338Z,9.31
2019-02-23T06:17:10.614Z,9.32
2019-02-23T06:22:15.972Z,9.39
2019-02-23T06:27:21.353Z,9.44
2019-02-23T06:32:26.656Z,9.44
2019-02-23T06:37:32.029Z,9.41
2019-02-23T06:42:37.462Z,9.48
2019-02-23T06:47:42.694Z,9.55
2019-02-23T06:52:47.854Z,9.57
2019-02-23T06:57:53.116Z,9.55
2019-02-23T07:02:58.331Z,9.55
2019-02-23T07:08:03.598Z,9.65
2019-02-23T07:13:08.978Z,9.67
2019-02-23T07:18:14.227Z,9.76
2019-02-23T07:23:19.487Z,9.88
2019-02-23T07:28:24.761Z,9.90
2019-02-23T07:33:33.160Z,9.95
2019-02-23T07:38:36.901Z,10.04
2019-02-23T07:43:42.162Z,10.10
2019-02-23T07:48:47.402Z,10.18
2019-02-23T07:53:52.687Z,10.29
2019-02-23T07:58:58.073Z,10.36
2019-02-23T08:04:03.256Z,10.37
2019-02-23T08:09:10.217Z,10.52
2019-02-23T08:14:15.529Z,10.67
2019-02-23T08:19:20.922Z,10.75
2019-02-23T08:24:26.188Z,10.83
2019-02-23T08:29:31.517Z,10.91
2019-02-23T08:34:36.783Z,11.06
2019-02-23T08:39:42.096Z,11.04
2019-02-23T08:44:47.482Z,11.11
2019-02-23T08:49:52.818Z,11.13
2019-02-23T08:54:58.209Z,11.07
2019-02-23T09:00:03.862Z,11.12
2019-02-23T09:05:10.441Z,11.19
2019-02-23T09:10:16.133Z,11.37
2019-02-23T09:15:22.380Z,11.49
2019-02-23T09:20:29.371Z,11.77
2019-02-23T09:25:34.836Z,12.01
2019-02-23T09:30:39.979Z,12.24
2019-02-23T09:35:46.405Z,12.39
2019-02-23T09:40:51.669Z,12.73
2019-02-23T09:45:56.999Z,13.21
2019-02-23T09:51:02.453Z,13.26
2019-02-23T09:56:07.677Z,12.87
2019-02-23T10:01:13.227Z,12.67
2019-02-23T10:06:18.734Z,12.50
2019-02-23T10:11:24.694Z,12.47
2019-02-23T10:16:29.962Z,12.47
2019-02-23T10:21:35.253Z,12.47
2019-02-23T10:26:40.497Z,12.70
2019-02-23T10:31:45.727Z,12.71
2019-02-23T10:36:51.083Z,12.80
2019-02-23T10:41:58.638Z,12.91
2019-02-23T10:47:03.951Z,13.26
2019-02-23T10:52:09.517Z,13.43
2019-02-23T10:57:15.251Z,13.30
2019-02-23T11:02:20.845Z,13.57
2019-02-23T11:07:28.856Z,13.59
2019-02-23T11:12:34.163Z,13.51
2019-02-23T11:17:39.413Z,13.46
2019-02-23T11:22:45.021Z,13.52
2019-02-23T11:27:50.567Z,13.51
2019-02-23T11:32:55.782Z,13.95
2019-02-23T11:38:00.964Z,14.12
2019-02-23T11:43:06.232Z,14.21
2019-02-23T11:48:11.457Z,14.41
2019-02-23T11:53:16.785Z,14.42
2019-02-23T11:58:22.122Z,14.49
2019-02-23T12:03:27.406Z,14.41
2019-02-23T12:08:32.769Z,14.19
2019-02-23T12:13:40.457Z,13.97
2019-02-23T12:18:45.679Z,13.69
2019-02-23T12:23:50.918Z,13.35
2019-02-23T12:28:56.267Z,13.24
2019-02-23T12:34:01.511Z,13.19
2019-02-23T12:39:07.370Z,13.17
2019-02-23T12:44:12.572Z,13.30
2019-02-23T12:49:17.884Z,13.50
2019-02-23T12:54:23.113Z,13.53
2019-02-23T12:59:28.349Z,13.54
2019-02-23T13:04:36.353Z,13.67
2019-02-23T13:09:46.617Z,14.14
2019-02-23T13:14:59.757Z,14.39
2019-02-23T13:20:22.017Z,14.23
2019-02-23T13:37:47.177Z,13.52
2019-02-23T13:43:15.002Z,13.24
2019-02-23T13:48:38.794Z,12.81
2019-02-23T13:54:11.267Z,12.54
2019-02-23T13:59:33.261Z,12.33
2019-02-23T14:05:04.185Z,12.17
2019-02-23T14:10:34.901Z,12.12
2019-02-23T14:15:52.781Z,12.01
2019-02-23T14:21:25.137Z,11.95
2019-02-23T14:26:51.404Z,11.93
2019-02-23T14:32:10.161Z,11.93
2019-02-23T14:37:32.361Z,11.96
2019-02-23T14:42:51.633Z,11.93
2019-02-23T14:48:18.972Z,12.28
2019-02-23T14:53:34.232Z,12.65
2019-02-23T14:58:57.354Z,12.83
2019-02-23T15:04:14.841Z,12.96
2019-02-23T15:09:36.342Z,12.96
2019-02-23T15:15:02.310Z,12.78
2019-02-23T15:20:20.614Z,12.68
2019-02-23T15:25:43.317Z,12.86
2019-02-23T15:31:06.258Z,13.22
2019-02-23T15:36:28.172Z,13.18
2019-02-23T15:41:57.717Z,13.46
2019-02-23T15:47:20.212Z,13.82
2019-02-23T15:52:26.754Z,14.06
2019-02-23T15:57:32.153Z,14.17
2019-02-23T16:02:37.982Z,14.03
2019-02-23T16:07:43.448Z,14.32
2019-02-23T16:12:48.724Z,14.45
2019-02-23T16:17:53.966Z,14.10
2019-02-23T16:22:59.322Z,13.93
2019-02-23T16:28:04.798Z,13.49
2019-02-23T16:33:10.202Z,13.20
2019-02-23T16:38:15.672Z,12.74
2019-02-23T16:43:21.067Z,12.53
2019-02-23T16:48:26.482Z,12.36
2019-02-23T16:53:31.774Z,12.37
2019-02-23T16:58:37.225Z,12.58
2019-02-23T17:03:42.571Z,12.94
2019-02-23T17:08:47.981Z,12.95
2019-02-23T17:13:53.302Z,12.93
2019-02-23T17:24:16.092Z,12.58
2019-02-23T17:29:22.197Z,12.33
2019-02-23T17:34:27.614Z,12.26
2019-02-23T17:39:33.017Z,12.32
2019-02-23T17:44:38.812Z,12.33
2019-02-23T17:49:44.258Z,12.80
2019-02-23T17:54:49.671Z,12.98
2019-02-23T17:59:55.031Z,12.76
2019-02-23T18:05:00.539Z,12.64
2019-02-23T18:10:06.032Z,12.22
2019-02-23T18:15:11.473Z,12.42
2019-02-23T18:20:16.935Z,12.35
2019-02-23T18:25:22.261Z,12.46
2019-02-23T18:30:27.689Z,12.57
2019-02-23T18:35:33.174Z,12.73
2019-02-23T18:40:38.498Z,12.91
2019-02-23T18:45:47.464Z,12.88
2019-02-23T18:50:51.082Z,12.83
2019-02-23T18:55:56.347Z,12.73
2019-02-23T19:01:01.547Z,12.55
2019-02-23T19:06:06.826Z,12.67
2019-02-23T19:11:12.136Z,12.77
2019-02-23T19:16:17.524Z,12.88
2019-02-23T19:21:22.869Z,13.13
2019-02-23T19:26:28.268Z,12.93
2019-02-23T19:31:33.569Z,12.69
2019-02-23T19:36:38.917Z,12.73
2019-02-23T19:41:44.207Z,12.70
2019-02-23T19:46:53.873Z,12.89
2019-02-23T19:51:59.142Z,12.94
2019-02-23T19:57:04.397Z,12.93
2019-02-23T20:02:09.718Z,12.78
2019-02-23T20:07:15.124Z,12.76
2019-02-23T20:12:20.407Z,12.69
2019-02-23T20:17:26.984Z,12.61
2019-02-23T20:22:32.263Z,12.65
2019-02-23T20:27:37.533Z,12.73
2019-02-23T20:32:42.927Z,12.80
2019-02-23T20:37:48.172Z,12.77
2019-02-23T20:42:53.408Z,12.71
2019-02-23T20:47:58.778Z,12.62
2019-02-23T20:53:09.028Z,12.41
2019-02-23T20:58:14.240Z,12.24
2019-02-23T21:03:19.573Z,12.14
2019-02-23T21:08:25.882Z,12.25
2019-02-23T21:13:32.627Z,12.17
2019-02-23T21:18:38.125Z,12.05
2019-02-23T21:23:43.352Z,12.00
2019-02-23T21:28:48.669Z,12.14
2019-02-23T21:33:54.012Z,12.20
2019-02-23T21:38:59.294Z,12.21
2019-02-23T21:44:05.407Z,12.30
2019-02-23T21:49:10.714Z,12.35
2019-02-23T21:54:16.139Z,12.40
2019-02-23T21:59:21.456Z,12.45
2019-02-23T22:04:27.006Z,12.32
2019-02-23T22:09:32.295Z,12.29
2019-02-23T22:14:38.531Z,11.86
2019-02-23T22:19:45.208Z,11.57
2019-02-23T22:24:50.523Z,11.75
2019-02-23T22:29:55.849Z,11.97
2019-02-23T22:35:01.094Z,12.13
2019-02-23T22:40:06.574Z,11.96
2019-02-23T22:45:11.799Z,11.57
2019-02-23T22:50:17.033Z,11.45
2019-02-23T22:55:23.786Z,11.47
2019-02-23T23:00:37.005Z,11.39
2019-02-23T23:05:42.228Z,11.27
2019-02-23T23:10:47.413Z,11.21
2019-02-23T23:15:52.812Z,11.06
2019-02-23T23:20:58.097Z,10.79
2019-02-23T23:26:03.403Z,10.62
2019-02-23T23:31:08.828Z,10.76
2019-02-23T23:36:14.114Z,10.87
2019-02-23T23:41:19.435Z,10.81
2019-02-23T23:46:25.800Z,10.87
2019-02-23T23:51:31.045Z,10.93
2019-02-23T23:56:36.310Z,10.92
